createdAt,value
2023-03-26T00:00:50.003Z,12.80
2023-03-26T00:01:50.077Z,12.00
2023-03-26T00:02:50.026Z,10.90
2023-03-26T00:03:49.968Z,10.90
2023-03-26T00:04:49.975Z,10.10
2023-03-26T00:05:49.995Z,9.80
2023-03-26T00:06:49.950Z,9.00
2023-03-26T00:07:49.916Z,9.90
2023-03-26T00:08:49.921Z,10.30
2023-03-26T00:09:49.902Z,8.40
2023-03-26T00:10:49.907Z,8.30
2023-03-26T00:11:49.901Z,9.10
2023-03-26T00:12:49.882Z,10.90
2023-03-26T00:13:49.866Z,8.30
2023-03-26T00:14:49.860Z,9.20
2023-03-26T00:15:49.837Z,9.90
2023-03-26T00:16:49.885Z,9.60
2023-03-26T00:17:51.158Z,9.40
2023-03-26T00:18:49.848Z,10.30
2023-03-26T00:19:49.785Z,11.60
2023-03-26T00:20:49.804Z,9.40
2023-03-26T00:21:49.773Z,10.10
2023-03-26T00:22:49.781Z,10.90
2023-03-26T00:23:49.789Z,12.10
2023-03-26T00:24:49.754Z,8.60
2023-03-26T00:25:49.728Z,10.80
2023-03-26T00:26:49.735Z,12.70
2023-03-26T00:27:49.718Z,10.50
2023-03-26T00:28:49.730Z,10.90
2023-03-26T00:29:49.764Z,10.50
2023-03-26T00:30:49.741Z,12.50
2023-03-26T00:31:49.689Z,10.10
2023-03-26T00:32:53.477Z,11.30
2023-03-26T00:33:49.672Z,11.60
2023-03-26T00:34:49.647Z,12.30
2023-03-26T00:35:49.795Z,12.30
2023-03-26T00:36:49.616Z,11.10
2023-03-26T00:37:49.656Z,12.80
2023-03-26T00:38:49.605Z,10.40
2023-03-26T00:39:49.606Z,12.70
2023-03-26T00:40:49.575Z,14.60
2023-03-26T00:41:49.610Z,11.80
2023-03-26T00:42:49.564Z,16.80
2023-03-26T00:43:49.569Z,13.30
2023-03-26T00:44:49.532Z,14.30
2023-03-26T00:45:49.583Z,13.70
2023-03-26T00:46:49.516Z,16.30
2023-03-26T00:47:49.607Z,15.10
2023-03-26T00:48:49.498Z,16.50
2023-03-26T00:49:49.506Z,14.30
2023-03-26T00:50:49.493Z,17.80
2023-03-26T00:51:49.504Z,17.00
2023-03-26T00:52:49.471Z,16.70
2023-03-26T00:53:49.509Z,18.10
2023-03-26T00:54:49.442Z,17.70
2023-03-26T00:55:49.465Z,18.50
2023-03-26T00:56:49.436Z,18.20
2023-03-26T00:57:49.425Z,17.90
2023-03-26T00:58:49.398Z,19.40
2023-03-26T00:59:49.431Z,20.40
2023-03-26T01:00:49.379Z,17.70
2023-03-26T01:01:49.412Z,21.90
2023-03-26T01:02:49.400Z,19.80
2023-03-26T01:04:04.788Z,19.70
2023-03-26T01:04:49.400Z,21.10
2023-03-26T01:05:49.365Z,21.80
2023-03-26T01:06:49.305Z,17.40
2023-03-26T01:07:49.326Z,22.70
2023-03-26T01:08:49.296Z,17.50
2023-03-26T01:09:49.311Z,19.00
2023-03-26T01:10:49.272Z,16.80
2023-03-26T01:11:49.298Z,22.00
2023-03-26T01:12:49.240Z,22.50
2023-03-26T01:13:49.256Z,19.70
2023-03-26T01:14:50.602Z,20.50
2023-03-26T01:15:49.262Z,21.40
2023-03-26T01:16:49.206Z,19.90
2023-03-26T01:17:49.284Z,21.60
2023-03-26T01:18:49.187Z,20.40
2023-03-26T01:19:49.193Z,23.70
2023-03-26T01:20:49.171Z,26.30
2023-03-26T01:21:49.173Z,23.50
2023-03-26T01:22:49.134Z,24.00
2023-03-26T01:23:49.171Z,27.30
2023-03-26T01:24:49.143Z,26.90
2023-03-26T01:25:49.132Z,28.00
2023-03-26T01:26:49.096Z,24.20
2023-03-26T01:27:49.118Z,32.80
2023-03-26T01:28:49.075Z,25.90
2023-03-26T01:29:49.105Z,32.80
2023-03-26T01:30:49.056Z,28.60
2023-03-26T01:31:49.072Z,25.00
2023-03-26T01:32:49.128Z,24.30
2023-03-26T01:33:49.100Z,27.90
2023-03-26T01:34:49.014Z,33.30
2023-03-26T01:35:49.106Z,25.10
2023-03-26T01:36:49.004Z,28.50
2023-03-26T01:37:49.026Z,34.10
2023-03-26T01:38:48.974Z,30.00
2023-03-26T01:39:48.987Z,24.20
2023-03-26T01:40:48.964Z,28.90
2023-03-26T01:41:48.991Z,23.90
2023-03-26T01:42:48.925Z,28.80
2023-03-26T01:43:48.946Z,32.40
2023-03-26T01:44:48.907Z,29.70
2023-03-26T01:45:48.958Z,29.50
2023-03-26T01:46:48.908Z,33.00
2023-03-26T01:47:48.981Z,34.80
2023-03-26T01:48:48.889Z,30.10
2023-03-26T01:49:48.880Z,39.40
2023-03-26T01:50:48.860Z,30.10
2023-03-26T01:51:48.863Z,32.40
2023-03-26T01:52:48.844Z,32.90
2023-03-26T01:53:48.859Z,31.30
2023-03-26T01:54:48.816Z,31.40
2023-03-26T01:55:48.826Z,30.70
2023-03-26T01:56:48.813Z,31.20
2023-03-26T01:57:48.800Z,34.30
2023-03-26T01:58:48.776Z,27.90
2023-03-26T01:59:48.808Z,33.00
2023-03-26T02:00:48.761Z,29.90
2023-03-26T02:01:48.826Z,32.80
2023-03-26T02:02:48.856Z,36.60
2023-03-26T02:03:48.831Z,34.20
2023-03-26T02:04:48.703Z,27.70
2023-03-26T02:05:48.755Z,34.40
2023-03-26T02:06:48.688Z,29.40
2023-03-26T02:07:48.705Z,30.50
2023-03-26T02:08:48.666Z,35.80
2023-03-26T02:09:48.678Z,29.20
2023-03-26T02:10:48.641Z,28.80
2023-03-26T02:11:48.684Z,32.40
2023-03-26T02:12:48.634Z,32.50
2023-03-26T02:13:48.629Z,33.90
2023-03-26T02:14:48.608Z,28.40
2023-03-26T02:15:48.634Z,31.10
2023-03-26T02:16:48.583Z,31.60
2023-03-26T02:17:48.790Z,30.20
2023-03-26T02:18:48.570Z,27.80
2023-03-26T02:19:48.584Z,27.60
2023-03-26T02:20:48.536Z,33.80
2023-03-26T02:21:48.552Z,30.20
2023-03-26T02:22:48.515Z,28.20
2023-03-26T02:23:48.550Z,30.90
2023-03-26T02:24:48.516Z,28.50
2023-03-26T02:25:48.525Z,29.80
2023-03-26T02:26:48.480Z,33.60
2023-03-26T02:27:48.493Z,32.60
2023-03-26T02:28:48.458Z,33.10
2023-03-26T02:29:48.522Z,29.20
2023-03-26T02:30:48.431Z,32.20
2023-03-26T02:31:48.577Z,27.70
2023-03-26T02:32:48.463Z,27.90
2023-03-26T02:33:48.434Z,31.60
2023-03-26T02:34:48.394Z,34.60
2023-03-26T02:35:48.484Z,27.60
2023-03-26T02:36:48.422Z,30.30
2023-03-26T02:37:48.416Z,32.80
2023-03-26T02:38:48.360Z,32.80
2023-03-26T02:39:48.355Z,33.50
2023-03-26T02:40:48.339Z,34.40
2023-03-26T02:41:48.369Z,29.20
2023-03-26T02:42:48.320Z,30.30
2023-03-26T02:43:48.345Z,33.70
2023-03-26T02:44:48.283Z,29.40
2023-03-26T02:45:48.368Z,33.10
2023-03-26T02:46:48.263Z,26.10
2023-03-26T02:47:48.336Z,30.30
2023-03-26T02:48:48.239Z,31.30
2023-03-26T02:49:48.257Z,27.50
2023-03-26T02:50:48.229Z,32.30
2023-03-26T02:51:48.236Z,27.40
2023-03-26T02:52:48.201Z,32.30
2023-03-26T02:53:48.259Z,27.40
2023-03-26T02:54:48.177Z,33.90
2023-03-26T02:55:48.202Z,30.10
2023-03-26T02:56:48.231Z,30.00
2023-03-26T02:57:48.178Z,30.10
2023-03-26T02:58:48.145Z,35.20
2023-03-26T02:59:48.180Z,36.50
2023-03-26T03:00:48.150Z,31.20
2023-03-26T03:01:48.140Z,31.20
2023-03-26T03:02:48.483Z,31.60
2023-03-26T03:03:48.114Z,34.90
2023-03-26T03:04:48.085Z,30.10
2023-03-26T03:05:48.122Z,30.70
2023-03-26T03:06:48.056Z,31.70
2023-03-26T03:07:48.071Z,36.00
2023-03-26T03:08:48.057Z,28.30
2023-03-26T03:09:48.046Z,38.10
2023-03-26T03:10:48.018Z,29.80
2023-03-26T03:11:48.044Z,33.20
2023-03-26T03:12:48.001Z,31.80
2023-03-26T03:13:48.014Z,29.70
2023-03-26T03:14:47.972Z,27.30
2023-03-26T03:15:47.982Z,28.90
2023-03-26T03:16:48.023Z,29.90
2023-03-26T03:17:48.040Z,29.80
2023-03-26T03:18:47.969Z,35.40
2023-03-26T03:19:47.953Z,34.10
2023-03-26T03:20:47.921Z,30.60
2023-03-26T03:21:47.928Z,35.10
2023-03-26T03:22:47.902Z,30.20
2023-03-26T03:23:47.949Z,32.40
2023-03-26T03:24:48.011Z,31.60
2023-03-26T03:25:47.902Z,29.30
2023-03-26T03:26:47.963Z,31.20
2023-03-26T03:27:47.873Z,35.20
2023-03-26T03:28:47.843Z,31.40
2023-03-26T03:29:47.864Z,31.70
2023-03-26T03:30:47.902Z,29.80
2023-03-26T03:31:47.828Z,33.50
2023-03-26T03:32:47.862Z,31.40
2023-03-26T03:33:47.852Z,31.90
2023-03-26T03:34:47.788Z,33.70
2023-03-26T03:35:47.850Z,30.10
2023-03-26T03:36:47.758Z,31.90
2023-03-26T03:37:47.768Z,31.10
2023-03-26T03:38:47.731Z,34.10
2023-03-26T03:39:47.758Z,30.30
2023-03-26T03:40:47.752Z,31.60
2023-03-26T03:41:47.761Z,29.60
2023-03-26T03:42:47.683Z,32.50
2023-03-26T03:43:47.709Z,32.30
2023-03-26T03:44:47.690Z,28.90
2023-03-26T03:45:47.698Z,34.70
2023-03-26T03:46:47.684Z,31.50
2023-03-26T03:47:47.735Z,31.80
2023-03-26T03:48:47.657Z,37.80
2023-03-26T03:49:47.643Z,34.70
2023-03-26T03:50:47.633Z,33.60
2023-03-26T03:51:47.613Z,34.80
2023-03-26T03:52:47.613Z,29.70
2023-03-26T03:53:47.625Z,32.10
2023-03-26T03:54:47.600Z,31.40
2023-03-26T03:55:47.555Z,33.90
2023-03-26T03:56:47.572Z,30.60
2023-03-26T03:57:47.547Z,34.50
2023-03-26T03:58:47.660Z,36.40
2023-03-26T03:59:48.580Z,33.50
2023-03-26T04:00:47.528Z,35.20
2023-03-26T04:01:47.497Z,32.60
2023-03-26T04:02:47.575Z,29.50
2023-03-26T04:03:47.651Z,37.70
2023-03-26T04:04:47.487Z,34.90
2023-03-26T04:05:47.474Z,33.60
2023-03-26T04:06:47.466Z,37.20
2023-03-26T04:07:47.433Z,33.20
2023-03-26T04:08:47.454Z,29.20
2023-03-26T04:09:47.415Z,32.10
2023-03-26T04:10:47.446Z,32.70
2023-03-26T04:11:47.420Z,35.40
2023-03-26T04:12:47.406Z,30.70
2023-03-26T04:13:47.385Z,33.00
2023-03-26T04:14:47.421Z,35.30
2023-03-26T04:15:47.423Z,40.30
2023-03-26T04:16:47.367Z,34.60
2023-03-26T04:17:47.443Z,32.80
2023-03-26T04:18:47.361Z,34.80
2023-03-26T04:19:47.333Z,33.50
2023-03-26T04:20:47.336Z,33.20
2023-03-26T04:21:47.292Z,32.60
2023-03-26T04:22:47.308Z,27.80
2023-03-26T04:23:47.288Z,35.70
2023-03-26T04:24:47.281Z,34.00
2023-03-26T04:25:47.246Z,31.40
2023-03-26T04:26:47.266Z,31.40
2023-03-26T04:27:47.221Z,35.80
2023-03-26T04:28:47.248Z,34.50
2023-03-26T04:29:47.234Z,30.90
2023-03-26T04:30:47.214Z,33.60
2023-03-26T04:31:47.311Z,29.70
2023-03-26T04:32:47.258Z,33.60
2023-03-26T04:33:47.171Z,36.90
2023-03-26T04:34:47.171Z,36.50
2023-03-26T04:35:47.199Z,34.00
2023-03-26T04:36:47.161Z,36.30
2023-03-26T04:37:47.149Z,34.00
2023-03-26T04:38:47.135Z,31.30
2023-03-26T04:39:47.105Z,38.10
2023-03-26T04:40:47.112Z,36.30
2023-03-26T04:41:47.101Z,31.70
2023-03-26T04:42:47.089Z,31.80
2023-03-26T04:43:47.107Z,34.00
2023-03-26T04:44:47.072Z,32.90
2023-03-26T04:45:47.073Z,33.90
2023-03-26T04:46:47.049Z,32.30
2023-03-26T04:47:47.121Z,34.70
2023-03-26T04:48:47.004Z,35.20
2023-03-26T04:49:47.016Z,34.20
2023-03-26T04:50:46.985Z,33.20
2023-03-26T04:51:47.064Z,33.00
2023-03-26T04:52:46.969Z,33.10
2023-03-26T04:53:46.996Z,32.10
2023-03-26T04:54:46.951Z,36.60
2023-03-26T04:55:46.966Z,30.50
2023-03-26T04:56:47.014Z,31.10
2023-03-26T04:57:46.943Z,32.00
2023-03-26T04:58:46.903Z,31.40
2023-03-26T04:59:46.939Z,34.20
2023-03-26T05:00:46.940Z,33.40
2023-03-26T05:01:46.894Z,41.50
2023-03-26T05:02:46.893Z,38.40
2023-03-26T05:03:46.900Z,33.20
2023-03-26T05:04:46.837Z,34.90
2023-03-26T05:05:46.880Z,31.20
2023-03-26T05:06:46.834Z,33.10
2023-03-26T05:07:46.859Z,33.80
2023-03-26T05:08:46.803Z,33.00
2023-03-26T05:09:46.855Z,33.00
2023-03-26T05:10:46.782Z,37.70
2023-03-26T05:11:46.806Z,36.10
2023-03-26T05:12:46.755Z,35.50
2023-03-26T05:13:46.782Z,33.30
2023-03-26T05:14:46.733Z,32.10
2023-03-26T05:15:46.752Z,31.20
2023-03-26T05:16:46.919Z,37.00
2023-03-26T05:17:46.819Z,39.40
2023-03-26T05:18:46.695Z,32.90
2023-03-26T05:19:46.711Z,38.60
2023-03-26T05:20:46.684Z,30.70
2023-03-26T05:21:46.688Z,43.10
2023-03-26T05:22:46.657Z,36.90
2023-03-26T05:23:46.698Z,32.70
2023-03-26T05:24:46.633Z,34.10
2023-03-26T05:25:46.639Z,35.20
2023-03-26T05:26:46.623Z,37.70
2023-03-26T05:27:46.630Z,37.30
2023-03-26T05:28:46.595Z,33.80
2023-03-26T05:29:46.616Z,31.90
2023-03-26T05:30:46.567Z,36.70
2023-03-26T05:31:46.609Z,39.00
2023-03-26T05:32:46.590Z,33.80
2023-03-26T05:33:46.638Z,33.50
2023-03-26T05:34:46.527Z,36.40
2023-03-26T05:35:46.573Z,34.60
2023-03-26T05:36:46.505Z,32.80
2023-03-26T05:37:46.528Z,36.50
2023-03-26T05:38:46.485Z,33.70
2023-03-26T05:39:46.513Z,32.30
2023-03-26T05:40:46.485Z,30.80
2023-03-26T05:41:46.511Z,35.60
2023-03-26T05:42:46.444Z,33.30
2023-03-26T05:43:46.465Z,34.70
2023-03-26T05:44:46.416Z,28.70
2023-03-26T05:45:46.457Z,35.00
2023-03-26T05:46:46.415Z,35.40
2023-03-26T05:47:46.454Z,34.90
2023-03-26T05:48:46.381Z,36.00
2023-03-26T05:49:46.403Z,29.50
2023-03-26T05:50:46.356Z,32.10
2023-03-26T05:51:46.371Z,31.10
2023-03-26T05:52:46.346Z,28.40
2023-03-26T05:53:46.381Z,27.10
2023-03-26T05:54:46.332Z,30.00
2023-03-26T05:55:46.337Z,31.00
2023-03-26T05:56:46.316Z,33.70
2023-03-26T05:57:46.308Z,36.30
2023-03-26T05:58:46.279Z,33.80
2023-03-26T05:59:46.312Z,37.60
2023-03-26T06:00:46.249Z,31.80
2023-03-26T06:01:46.296Z,30.90
2023-03-26T06:02:46.290Z,34.90
2023-03-26T06:03:46.308Z,29.60
2023-03-26T06:04:46.330Z,35.30
2023-03-26T06:05:46.249Z,34.70
2023-03-26T06:06:46.192Z,33.50
2023-03-26T06:07:46.207Z,34.00
2023-03-26T06:08:46.175Z,34.50
2023-03-26T06:09:46.184Z,30.90
2023-03-26T06:10:46.158Z,29.40
2023-03-26T06:11:46.184Z,34.50
2023-03-26T06:12:46.128Z,33.90
2023-03-26T06:13:46.149Z,28.80
2023-03-26T06:14:46.114Z,29.30
2023-03-26T06:15:46.185Z,34.50
2023-03-26T06:16:46.097Z,31.70
2023-03-26T06:17:46.229Z,34.30
2023-03-26T06:18:46.081Z,25.40
2023-03-26T06:19:46.085Z,31.10
2023-03-26T06:20:46.044Z,31.60
2023-03-26T06:21:46.072Z,30.00
2023-03-26T06:22:46.027Z,30.50
2023-03-26T06:23:46.050Z,30.30
2023-03-26T06:24:46.005Z,30.10
2023-03-26T06:25:46.012Z,33.10
2023-03-26T06:26:45.984Z,32.00
2023-03-26T06:27:46.012Z,29.50
2023-03-26T06:28:45.970Z,28.40
2023-03-26T06:29:46.028Z,29.10
2023-03-26T06:30:45.945Z,30.90
2023-03-26T06:31:45.969Z,32.80
2023-03-26T06:32:45.943Z,27.30
2023-03-26T06:33:45.952Z,28.00
2023-03-26T06:34:45.897Z,27.10
2023-03-26T06:35:45.963Z,32.10
2023-03-26T06:36:45.884Z,35.70
2023-03-26T06:37:45.890Z,30.10
2023-03-26T06:38:45.871Z,33.50
2023-03-26T06:39:45.895Z,29.60
2023-03-26T06:40:45.853Z,27.90
2023-03-26T06:41:45.875Z,28.40
2023-03-26T06:43:08.818Z,27.50
2023-03-26T06:43:45.834Z,31.10
2023-03-26T06:44:45.803Z,28.70
2023-03-26T06:45:45.810Z,28.50
2023-03-26T06:46:45.789Z,24.00
2023-03-26T06:47:45.890Z,29.50
2023-03-26T06:48:45.758Z,27.60
2023-03-26T06:49:45.767Z,27.50
2023-03-26T06:50:45.736Z,26.60
2023-03-26T06:51:45.763Z,27.70
2023-03-26T06:52:45.714Z,27.30
2023-03-26T06:53:45.749Z,28.50
2023-03-26T06:54:45.693Z,29.10
2023-03-26T06:55:45.706Z,26.10
2023-03-26T06:56:45.705Z,28.00
2023-03-26T06:57:45.683Z,29.20
2023-03-26T06:58:45.651Z,27.90
2023-03-26T06:59:45.690Z,27.10
2023-03-26T07:00:45.660Z,27.60
2023-03-26T07:01:46.798Z,29.90
2023-03-26T07:02:45.636Z,24.90
2023-03-26T07:03:45.675Z,30.70
2023-03-26T07:04:45.596Z,25.40
2023-03-26T07:05:45.625Z,29.60
2023-03-26T07:06:45.577Z,28.00
2023-03-26T07:07:46.463Z,25.90
2023-03-26T07:08:45.556Z,28.90
2023-03-26T07:09:45.562Z,26.60
2023-03-26T07:10:45.526Z,27.90
2023-03-26T07:11:45.559Z,24.10
2023-03-26T07:12:45.508Z,25.00
2023-03-26T07:13:45.559Z,29.10
2023-03-26T07:14:45.486Z,27.70
2023-03-26T07:15:45.502Z,25.20
2023-03-26T07:16:45.511Z,25.70
2023-03-26T07:17:45.553Z,27.50
2023-03-26T07:18:45.449Z,26.70
2023-03-26T07:19:45.458Z,27.50
2023-03-26T07:20:45.422Z,26.80
2023-03-26T07:21:45.439Z,27.40
2023-03-26T07:22:45.404Z,26.90
2023-03-26T07:23:45.446Z,27.10
2023-03-26T07:24:45.390Z,27.80
2023-03-26T07:25:45.409Z,27.00
2023-03-26T07:26:45.489Z,28.40
2023-03-26T07:27:45.376Z,25.60
2023-03-26T07:29:04.839Z,29.60
2023-03-26T07:29:45.393Z,26.60
2023-03-26T07:30:45.322Z,26.50
2023-03-26T07:31:45.387Z,28.00
2023-03-26T07:32:45.362Z,29.10
2023-03-26T07:33:45.317Z,24.30
2023-03-26T07:34:45.278Z,29.30
2023-03-26T07:35:45.325Z,27.60
2023-03-26T07:36:45.280Z,25.30
2023-03-26T07:37:45.277Z,27.80
2023-03-26T07:38:45.236Z,32.40
2023-03-26T07:39:45.256Z,25.80
2023-03-26T07:40:45.226Z,31.20
2023-03-26T07:41:45.259Z,25.30
2023-03-26T07:42:45.195Z,27.00
2023-03-26T07:43:45.212Z,27.20
2023-03-26T07:44:45.177Z,26.80
2023-03-26T07:45:45.231Z,26.40
2023-03-26T07:46:45.157Z,24.90
2023-03-26T07:47:45.271Z,26.20
2023-03-26T07:48:45.132Z,25.50
2023-03-26T07:49:45.144Z,24.80
2023-03-26T07:50:45.112Z,26.20
2023-03-26T07:51:45.126Z,25.40
2023-03-26T07:52:45.087Z,24.70
2023-03-26T07:53:45.126Z,28.40
2023-03-26T07:54:45.073Z,24.40
2023-03-26T07:55:45.082Z,26.70
2023-03-26T07:56:45.113Z,28.50
2023-03-26T07:57:45.080Z,24.00
2023-03-26T07:58:45.025Z,25.20
2023-03-26T07:59:45.072Z,26.40
2023-03-26T08:00:45.008Z,26.20
2023-03-26T08:01:45.015Z,27.30
2023-03-26T08:02:45.049Z,23.90
2023-03-26T08:03:45.062Z,25.90
2023-03-26T08:04:45.044Z,25.80
2023-03-26T08:05:45.009Z,28.20
2023-03-26T08:06:44.950Z,27.00
2023-03-26T08:07:44.964Z,23.40
2023-03-26T08:08:44.952Z,24.80
2023-03-26T08:09:44.937Z,24.40
2023-03-26T08:10:44.902Z,21.80
2023-03-26T08:11:44.947Z,25.40
2023-03-26T08:12:44.883Z,26.10
2023-03-26T08:13:44.894Z,24.80
2023-03-26T08:14:44.872Z,26.50
2023-03-26T08:15:44.934Z,24.40
2023-03-26T08:16:44.844Z,26.10
2023-03-26T08:17:44.920Z,25.70
2023-03-26T08:18:44.834Z,25.70
2023-03-26T08:19:44.899Z,21.70
2023-03-26T08:20:44.801Z,26.90
2023-03-26T08:21:44.812Z,21.20
2023-03-26T08:22:44.781Z,24.70
2023-03-26T08:23:50.386Z,21.40
2023-03-26T08:24:44.761Z,23.00
2023-03-26T08:25:44.778Z,22.80
2023-03-26T08:26:44.736Z,18.90
2023-03-26T08:27:44.753Z,22.70
2023-03-26T08:28:44.727Z,19.10
2023-03-26T08:29:44.757Z,25.10
2023-03-26T08:30:44.728Z,24.60
2023-03-26T08:31:44.719Z,24.80
2023-03-26T08:32:44.690Z,20.00
2023-03-26T08:33:44.685Z,23.20
2023-03-26T08:34:44.663Z,20.30
2023-03-26T08:35:44.763Z,23.30
2023-03-26T08:36:44.632Z,21.30
2023-03-26T08:37:44.666Z,20.00
2023-03-26T08:38:46.837Z,22.90
2023-03-26T08:39:44.622Z,25.10
2023-03-26T08:40:44.590Z,20.00
2023-03-26T08:41:44.645Z,22.30
2023-03-26T08:42:44.571Z,18.90
2023-03-26T08:43:44.582Z,19.70
2023-03-26T08:44:44.551Z,17.90
2023-03-26T08:45:44.565Z,21.10
2023-03-26T08:46:44.565Z,21.20
2023-03-26T08:47:44.635Z,19.60
2023-03-26T08:48:44.503Z,20.30
2023-03-26T08:49:44.530Z,17.20
2023-03-26T08:50:44.498Z,19.30
2023-03-26T08:51:44.502Z,20.90
2023-03-26T08:52:44.464Z,18.90
2023-03-26T08:53:44.517Z,22.10
2023-03-26T08:54:44.446Z,17.10
2023-03-26T08:55:44.459Z,17.20
2023-03-26T08:56:44.459Z,18.30
2023-03-26T08:57:44.435Z,17.40
2023-03-26T08:58:44.406Z,20.60
2023-03-26T08:59:44.444Z,18.20
2023-03-26T09:00:44.386Z,17.60
2023-03-26T09:01:44.419Z,21.10
2023-03-26T09:02:44.399Z,19.20
2023-03-26T09:03:44.391Z,19.40
2023-03-26T09:04:44.373Z,22.10
2023-03-26T09:05:44.372Z,19.60
2023-03-26T09:06:44.345Z,15.90
2023-03-26T09:07:44.310Z,16.80
2023-03-26T09:08:54.489Z,17.70
2023-03-26T09:09:44.302Z,18.90
2023-03-26T09:10:44.301Z,18.80
2023-03-26T09:11:44.298Z,20.40
2023-03-26T09:12:44.285Z,16.40
2023-03-26T09:13:44.262Z,17.00
2023-03-26T09:14:44.264Z,15.60
2023-03-26T09:15:44.237Z,18.30
2023-03-26T09:16:44.304Z,15.40
2023-03-26T09:17:44.269Z,16.60
2023-03-26T09:18:44.228Z,15.90
2023-03-26T09:19:44.195Z,16.20
2023-03-26T09:20:44.202Z,18.90
2023-03-26T09:21:44.170Z,14.30
2023-03-26T09:22:44.174Z,13.10
2023-03-26T09:23:44.155Z,14.40
2023-03-26T09:24:44.160Z,16.60
2023-03-26T09:25:44.136Z,15.00
2023-03-26T09:26:44.151Z,16.00
2023-03-26T09:27:44.100Z,19.00
2023-03-26T09:28:44.129Z,15.50
2023-03-26T09:29:44.118Z,15.90
2023-03-26T09:30:44.094Z,14.10
2023-03-26T09:31:44.078Z,12.30
2023-03-26T09:32:44.097Z,14.70
2023-03-26T09:33:44.049Z,16.00
2023-03-26T09:34:44.054Z,17.40
2023-03-26T09:35:44.070Z,16.60
2023-03-26T09:36:44.030Z,12.80
2023-03-26T09:37:57.116Z,18.60
2023-03-26T09:38:44.029Z,15.40
2023-03-26T09:39:43.978Z,13.00
2023-03-26T09:40:44.030Z,17.40
2023-03-26T09:41:43.987Z,17.70
2023-03-26T09:42:43.983Z,18.10
2023-03-26T09:43:43.985Z,16.20
2023-03-26T09:44:43.981Z,14.70
2023-03-26T09:45:43.947Z,12.90
2023-03-26T09:46:45.587Z,18.30
2023-03-26T09:47:44.012Z,17.80
2023-03-26T09:48:43.924Z,16.20
2023-03-26T09:49:43.928Z,21.60
2023-03-26T09:50:43.891Z,17.10
2023-03-26T09:51:43.884Z,18.90
2023-03-26T09:52:43.883Z,17.40
2023-03-26T09:53:43.888Z,22.60
2023-03-26T09:54:43.865Z,19.10
2023-03-26T09:55:43.829Z,20.80
2023-03-26T09:56:43.899Z,21.50
2023-03-26T09:57:43.836Z,20.90
2023-03-26T09:58:43.829Z,20.20
2023-03-26T09:59:43.797Z,21.20
2023-03-26T10:00:43.818Z,24.90
2023-03-26T10:01:43.789Z,21.70
2023-03-26T10:02:46.067Z,23.50
2023-03-26T10:03:43.732Z,21.50
2023-03-26T10:04:43.793Z,20.10
2023-03-26T10:05:43.733Z,23.70
2023-03-26T10:06:43.718Z,24.60
2023-03-26T10:07:43.690Z,27.30
2023-03-26T10:08:43.697Z,28.60
2023-03-26T10:09:43.680Z,25.60
2023-03-26T10:10:43.683Z,25.30
2023-03-26T10:11:43.675Z,28.50
2023-03-26T10:12:43.664Z,27.90
2023-03-26T10:13:43.623Z,28.70
2023-03-26T10:14:43.646Z,27.20
2023-03-26T10:15:43.609Z,25.10
2023-03-26T10:16:43.660Z,25.30
2023-03-26T10:17:43.668Z,27.80
2023-03-26T10:18:43.593Z,27.80
2023-03-26T10:19:43.572Z,24.20
2023-03-26T10:20:43.572Z,26.20
2023-03-26T10:21:43.538Z,25.20
2023-03-26T10:22:43.571Z,24.70
2023-03-26T10:23:43.549Z,23.80
2023-03-26T10:24:43.532Z,23.60
2023-03-26T10:25:43.505Z,25.20
2023-03-26T10:27:10.295Z,22.20
2023-03-26T10:27:43.482Z,25.60
2023-03-26T10:28:43.486Z,24.00
2023-03-26T10:29:43.482Z,23.80
2023-03-26T10:30:43.500Z,26.90
2023-03-26T10:31:43.439Z,26.80
2023-03-26T10:32:43.465Z,30.80
2023-03-26T10:33:43.419Z,28.20
2023-03-26T10:34:43.429Z,29.80
2023-03-26T10:35:43.432Z,30.80
2023-03-26T10:36:43.404Z,29.20
2023-03-26T10:37:43.374Z,30.90
2023-03-26T10:38:43.383Z,28.90
2023-03-26T10:39:43.681Z,32.70
2023-03-26T10:40:43.365Z,28.50
2023-03-26T10:41:43.394Z,36.80
2023-03-26T10:42:43.383Z,29.70
2023-03-26T10:43:43.310Z,31.80
2023-03-26T10:44:43.335Z,29.10
2023-03-26T10:45:43.293Z,38.30
2023-03-26T10:46:43.296Z,33.30
2023-03-26T10:47:43.353Z,34.80
2023-03-26T10:48:43.281Z,34.60
2023-03-26T10:49:43.251Z,36.20
2023-03-26T10:50:43.315Z,41.90
2023-03-26T10:51:43.264Z,46.00
2023-03-26T10:52:43.234Z,37.20
2023-03-26T10:53:43.225Z,34.20
2023-03-26T10:54:43.239Z,37.80
2023-03-26T10:55:43.180Z,34.70
2023-03-26T10:56:43.211Z,35.70
2023-03-26T10:57:43.184Z,33.60
2023-03-26T10:58:48.469Z,32.80
2023-03-26T10:59:43.189Z,31.10
2023-03-26T11:00:43.157Z,31.10
2023-03-26T11:01:43.179Z,33.40
2023-03-26T11:02:43.261Z,36.00
2023-03-26T11:03:43.101Z,34.30
2023-03-26T11:04:43.139Z,37.10
2023-03-26T11:05:43.147Z,32.00
2023-03-26T11:06:43.102Z,32.80
2023-03-26T11:07:43.065Z,32.90
2023-03-26T11:08:43.082Z,38.20
2023-03-26T11:09:43.044Z,33.70
2023-03-26T11:10:43.074Z,31.70
2023-03-26T11:11:43.049Z,33.30
2023-03-26T11:12:43.045Z,33.00
2023-03-26T11:13:43.001Z,31.60
2023-03-26T11:14:43.019Z,27.20
2023-03-26T11:15:42.987Z,33.20
2023-03-26T11:16:42.992Z,31.00
2023-03-26T11:17:43.031Z,28.80
2023-03-26T11:18:43.004Z,35.20
2023-03-26T11:19:42.938Z,32.20
2023-03-26T11:20:42.955Z,32.90
2023-03-26T11:21:42.918Z,32.30
2023-03-26T11:22:42.961Z,29.00
2023-03-26T11:23:42.923Z,30.50
2023-03-26T11:24:42.917Z,29.60
2023-03-26T11:25:42.882Z,32.70
2023-03-26T11:26:42.889Z,27.20
2023-03-26T11:27:42.873Z,27.80
2023-03-26T11:28:49.654Z,31.60
2023-03-26T11:29:42.864Z,24.50
2023-03-26T11:30:42.844Z,21.90
2023-03-26T11:31:42.828Z,24.80
2023-03-26T11:32:42.856Z,22.40
2023-03-26T11:33:46.202Z,26.10
2023-03-26T11:34:42.835Z,26.30
2023-03-26T11:35:42.823Z,30.20
2023-03-26T11:36:42.782Z,27.40
2023-03-26T11:37:42.752Z,25.40
2023-03-26T11:38:42.765Z,25.90
2023-03-26T11:39:42.732Z,27.00
2023-03-26T11:40:42.749Z,27.50
2023-03-26T11:41:42.729Z,30.60
2023-03-26T11:42:42.727Z,27.20
2023-03-26T11:43:42.704Z,29.00
2023-03-26T11:44:42.703Z,27.00
2023-03-26T11:45:42.678Z,29.90
2023-03-26T11:46:42.772Z,32.40
2023-03-26T11:47:42.780Z,31.80
2023-03-26T11:48:42.660Z,32.00
2023-03-26T11:49:42.638Z,30.90
2023-03-26T11:50:42.656Z,30.20
2023-03-26T11:51:42.617Z,29.70
2023-03-26T11:52:42.621Z,32.40
2023-03-26T11:53:42.605Z,31.00
2023-03-26T11:54:42.601Z,31.40
2023-03-26T11:55:42.568Z,30.80
2023-03-26T11:57:06.089Z,28.90
2023-03-26T11:57:42.543Z,33.20
2023-03-26T11:58:42.559Z,31.10
2023-03-26T11:59:53.730Z,27.40
2023-03-26T12:00:42.532Z,31.20
2023-03-26T12:01:42.521Z,33.00
2023-03-26T12:02:42.602Z,31.40
2023-03-26T12:03:42.489Z,32.10
2023-03-26T12:04:42.546Z,27.50
2023-03-26T12:05:42.490Z,31.00
2023-03-26T12:06:42.462Z,26.60
2023-03-26T12:07:42.433Z,27.10
2023-03-26T12:08:42.451Z,21.20
2023-03-26T12:09:42.420Z,22.20
2023-03-26T12:10:42.426Z,23.60
2023-03-26T12:11:42.413Z,22.90
2023-03-26T12:12:42.405Z,20.80
2023-03-26T12:13:42.386Z,23.00
2023-03-26T12:14:42.393Z,23.30
2023-03-26T12:15:42.348Z,25.70
2023-03-26T12:16:42.431Z,29.00
2023-03-26T12:17:42.382Z,26.00
2023-03-26T12:18:42.351Z,29.30
2023-03-26T12:19:42.339Z,30.40
2023-03-26T12:20:42.326Z,31.10
2023-03-26T12:21:42.282Z,29.60
2023-03-26T12:22:43.580Z,28.40
2023-03-26T12:23:42.291Z,30.10
2023-03-26T12:24:42.288Z,30.50
2023-03-26T12:25:42.246Z,23.20
2023-03-26T12:26:42.260Z,22.00
2023-03-26T12:27:42.221Z,25.80
2023-03-26T12:28:43.025Z,26.80
2023-03-26T12:29:42.220Z,20.20
2023-03-26T12:30:42.223Z,22.20
2023-03-26T12:31:42.216Z,20.80
2023-03-26T12:32:46.119Z,20.40
2023-03-26T12:33:42.164Z,19.90
2023-03-26T12:34:42.190Z,17.20
2023-03-26T12:35:42.193Z,21.00
2023-03-26T12:36:42.150Z,22.50
2023-03-26T12:37:42.116Z,22.30
2023-03-26T12:38:42.146Z,22.10
2023-03-26T12:40:07.350Z,23.00
2023-03-26T12:40:42.119Z,23.30
2023-03-26T12:43:51.614Z,21.70
2023-03-26T12:44:58.833Z,18.60
2023-03-26T12:45:05.420Z,16.90
2023-03-26T12:47:46.111Z,15.00
2023-03-26T12:48:04.738Z,19.70
2023-03-26T12:48:10.173Z,20.00
2023-03-26T12:49:10.156Z,20.90
2023-03-26T12:50:10.069Z,18.40
2023-03-26T12:51:10.049Z,19.80
2023-03-26T12:52:10.060Z,18.70
2023-03-26T12:53:10.077Z,19.40
2023-03-26T12:54:10.038Z,21.20
2023-03-26T12:55:12.141Z,24.20